Westford, Pennsylvania
Current Conditions -  °F | °C
As of 5:53 PM on Wednesday 17 Dec 2014 (Local Time) from KGKJ Reporting Station
Unknown Precip Unknown Precip  
Wind Chill: 19°   Ceiling: 1600
Heat Index: 29°   Visibility: 6mi
Dew Point: 23°   Wind: 13mph
Humidity: 78%   Direction: 260°W
Pressure: 30.02"   Gusts: NA
Location:  41.5078°N, 80.4555°W
Report Text: KGKJ 172253Z AUTO 26011KT 6SM UP OVC016 M02/M05 A3002 RMK AO2 UPB43SNB23E43 SLP180 P0000 T10171050 TSNO
Loading
Personal Weather Stations






























Interactive Weather Map New forecast layout! Learn more

10-Day Weather Forecast

Advertisements
Track Severe Weather on mobile